createdAt,value
2022-10-01T00:02:53.364Z,70.58
2022-10-01T00:06:09.300Z,70.61
2022-10-01T00:09:15.174Z,70.56
2022-10-01T00:12:21.043Z,70.54
2022-10-01T00:15:27.661Z,70.55
2022-10-01T00:18:33.503Z,70.49
2022-10-01T00:21:39.365Z,70.49
2022-10-01T00:24:45.359Z,70.44
2022-10-01T00:27:51.282Z,70.40
2022-10-01T00:30:57.207Z,70.47
2022-10-01T00:34:04.518Z,70.50
2022-10-01T00:37:10.839Z,70.47
2022-10-01T00:40:16.771Z,70.35
2022-10-01T00:43:25.824Z,70.31
2022-10-01T00:46:38.982Z,70.26
2022-10-01T00:49:47.387Z,70.16
2022-10-01T00:52:58.130Z,70.12
2022-10-01T00:56:04.669Z,70.13
2022-10-01T00:59:11.659Z,70.16
2022-10-01T01:02:17.558Z,70.19
2022-10-01T01:05:24.482Z,70.10
2022-10-01T01:08:30.598Z,70.19
2022-10-01T01:11:40.646Z,70.45
2022-10-01T01:14:54.587Z,70.63
2022-10-01T01:18:09.453Z,70.50
2022-10-01T01:21:33.803Z,70.63
2022-10-01T01:24:53.065Z,70.57
2022-10-01T01:28:13.786Z,70.44
2022-10-01T01:31:25.360Z,70.73
2022-10-01T01:34:33.979Z,71.22
2022-10-01T01:37:46.067Z,71.35
2022-10-01T01:40:55.977Z,71.44
2022-10-01T01:44:07.028Z,71.61
2022-10-01T01:47:14.570Z,71.52
2022-10-01T01:50:21.215Z,71.51
2022-10-01T01:53:27.559Z,71.46
2022-10-01T01:56:35.882Z,71.54
2022-10-01T01:59:43.382Z,71.47
2022-10-01T02:02:53.772Z,71.50
2022-10-01T02:06:13.534Z,71.43
2022-10-01T02:09:28.576Z,71.35
2022-10-01T02:12:50.091Z,71.34
2022-10-01T02:16:06.485Z,71.35
2022-10-01T02:19:23.341Z,71.28
2022-10-01T02:22:41.252Z,71.35
2022-10-01T02:25:52.408Z,71.21
2022-10-01T02:29:04.749Z,71.22
2022-10-01T02:32:12.537Z,71.12
2022-10-01T02:35:20.522Z,71.00
2022-10-01T02:38:27.449Z,70.91
2022-10-01T02:41:37.410Z,70.86
2022-10-01T02:44:45.967Z,70.67
2022-10-01T02:47:55.874Z,70.66
2022-10-01T02:51:16.567Z,70.82
2022-10-01T02:54:28.636Z,70.99
2022-10-01T02:57:34.910Z,71.00
2022-10-01T03:00:40.769Z,70.92
2022-10-01T03:03:46.629Z,70.94
2022-10-01T03:06:52.486Z,70.94
2022-10-01T03:09:58.986Z,71.00
2022-10-01T03:13:06.263Z,71.10
2022-10-01T03:16:12.176Z,71.18
2022-10-01T03:19:18.343Z,71.20
2022-10-01T03:22:24.975Z,71.10
2022-10-01T03:25:30.821Z,71.01
2022-10-01T03:28:36.659Z,71.04
2022-10-01T03:31:42.600Z,71.15
2022-10-01T03:34:48.806Z,71.32
2022-10-01T03:37:53.141Z,71.70
2022-10-01T03:40:59.091Z,72.15
2022-10-01T03:44:05.108Z,72.29
2022-10-01T03:47:11.036Z,72.33
2022-10-01T03:50:17.082Z,72.27
2022-10-01T03:53:23.015Z,72.09
2022-10-01T03:56:29.269Z,72.22
2022-10-01T03:59:36.178Z,72.31
2022-10-01T04:02:42.130Z,72.35
2022-10-01T04:05:48.642Z,72.45
2022-10-01T04:08:54.503Z,72.61
2022-10-01T04:12:00.551Z,72.63
2022-10-01T04:15:07.134Z,72.76
2022-10-01T04:18:13.319Z,72.96
2022-10-01T04:21:17.535Z,73.07
2022-10-01T04:24:23.406Z,73.34
2022-10-01T04:27:29.270Z,73.02
2022-10-01T04:30:37.858Z,73.04
2022-10-01T04:33:44.003Z,73.06
2022-10-01T04:36:48.212Z,73.03
2022-10-01T04:39:54.446Z,73.25
2022-10-01T04:43:00.515Z,72.76
2022-10-01T04:46:06.480Z,72.61
2022-10-01T04:49:12.341Z,72.50
2022-10-01T04:52:18.230Z,72.36
2022-10-01T04:55:24.635Z,72.28
2022-10-01T04:58:31.579Z,72.19
2022-10-01T05:01:37.972Z,72.05
2022-10-01T05:04:44.299Z,71.88
2022-10-01T05:07:51.210Z,71.75
2022-10-01T05:10:57.059Z,71.74
2022-10-01T05:14:03.105Z,71.66
2022-10-01T05:17:09.274Z,71.55
2022-10-01T05:20:16.929Z,71.48
2022-10-01T05:23:22.769Z,71.67
2022-10-01T05:26:29.753Z,71.52
2022-10-01T05:29:35.615Z,71.46
2022-10-01T05:32:41.990Z,71.48
2022-10-01T05:35:47.987Z,71.44
2022-10-01T05:38:53.835Z,71.41
2022-10-01T05:42:05.361Z,71.52
2022-10-01T05:45:13.498Z,71.65
2022-10-01T05:48:19.347Z,71.51
2022-10-01T05:51:25.323Z,71.49
2022-10-01T05:54:31.738Z,71.51
2022-10-01T05:57:37.654Z,71.49
2022-10-01T06:00:44.250Z,71.61
2022-10-01T06:03:53.698Z,71.80
2022-10-01T06:06:59.660Z,71.72
2022-10-01T06:10:06.521Z,71.68
2022-10-01T06:13:17.983Z,71.71
2022-10-01T06:16:24.014Z,71.70
2022-10-01T06:19:29.937Z,71.55
2022-10-01T06:22:35.850Z,71.43
2022-10-01T06:25:42.935Z,71.58
2022-10-01T06:28:52.780Z,71.66
2022-10-01T06:31:58.645Z,71.56
2022-10-01T06:35:04.919Z,71.83
2022-10-01T06:38:11.038Z,72.15
2022-10-01T06:41:15.233Z,71.82
2022-10-01T06:44:21.045Z,71.87
2022-10-01T06:47:26.982Z,71.61
2022-10-01T06:50:34.007Z,71.42
2022-10-01T06:53:39.966Z,71.36
2022-10-01T06:56:45.829Z,71.39
2022-10-01T06:59:52.222Z,71.30
2022-10-01T07:02:58.841Z,71.22
2022-10-01T07:06:11.143Z,71.15
2022-10-01T07:09:17.014Z,71.00
2022-10-01T07:12:23.139Z,71.48
2022-10-01T07:15:27.366Z,71.47
2022-10-01T07:18:33.201Z,71.44
2022-10-01T07:21:39.065Z,71.16
2022-10-01T07:24:44.910Z,71.17
2022-10-01T07:27:50.798Z,71.23
2022-10-01T07:31:05.204Z,71.07
2022-10-01T07:34:11.050Z,70.88
2022-10-01T07:37:16.959Z,70.62
2022-10-01T07:40:22.838Z,70.53
2022-10-01T07:43:28.690Z,70.43
2022-10-01T07:46:34.942Z,70.62
2022-10-01T07:49:40.855Z,71.20
2022-10-01T07:52:46.685Z,71.04
2022-10-01T07:55:52.551Z,71.10
2022-10-01T07:58:59.506Z,71.29
2022-10-01T08:02:05.431Z,70.86
2022-10-01T08:05:22.043Z,70.80
2022-10-01T08:08:28.014Z,70.95
2022-10-01T08:11:34.604Z,70.59
2022-10-01T08:14:40.730Z,70.60
2022-10-01T08:17:47.067Z,70.46
2022-10-01T08:20:53.249Z,70.72
2022-10-01T08:23:59.125Z,70.46
2022-10-01T08:27:05.091Z,70.21
2022-10-01T08:30:12.622Z,70.63
2022-10-01T08:33:18.578Z,70.45
2022-10-01T08:36:24.432Z,70.70
2022-10-01T08:39:30.275Z,70.68
2022-10-01T08:43:00.187Z,71.43
2022-10-01T08:46:09.447Z,70.91
2022-10-01T08:49:22.443Z,71.02
2022-10-01T08:52:31.184Z,71.08
2022-10-01T08:55:38.064Z,71.06
2022-10-01T08:58:54.731Z,71.66
2022-10-01T09:02:00.912Z,71.03
2022-10-01T09:05:09.333Z,70.75
2022-10-01T09:08:25.458Z,70.76
2022-10-01T09:11:45.776Z,70.86
2022-10-01T09:15:05.679Z,70.30
2022-10-01T09:18:23.095Z,69.88
2022-10-01T09:21:42.335Z,70.29
2022-10-01T09:24:53.359Z,69.96
2022-10-01T09:28:08.455Z,69.09
2022-10-01T09:31:22.964Z,69.58
2022-10-01T09:34:35.300Z,68.78
2022-10-01T09:37:48.338Z,67.91
2022-10-01T09:40:57.012Z,67.34
2022-10-01T09:44:03.190Z,67.59
2022-10-01T09:47:19.404Z,68.00
2022-10-01T09:50:35.122Z,67.82
2022-10-01T09:53:46.310Z,68.00
2022-10-01T09:56:56.378Z,68.37
2022-10-01T10:00:10.165Z,68.43
2022-10-01T10:03:26.765Z,68.54
2022-10-01T10:06:34.357Z,68.71
2022-10-01T10:09:41.565Z,68.72
2022-10-01T10:12:49.321Z,68.47
2022-10-01T10:15:57.829Z,68.09
2022-10-01T10:19:10.466Z,68.54
2022-10-01T10:22:25.030Z,68.40
2022-10-01T10:25:30.970Z,68.58
2022-10-01T10:28:46.084Z,68.12
2022-10-01T10:31:52.343Z,68.30
2022-10-01T10:35:03.738Z,68.84
2022-10-01T10:38:20.511Z,69.23
2022-10-01T10:41:27.419Z,69.37
2022-10-01T10:44:37.442Z,68.73
2022-10-01T10:47:49.964Z,69.12
2022-10-01T10:51:02.720Z,69.79
2022-10-01T10:54:21.306Z,70.33
2022-10-01T10:57:30.130Z,70.35
2022-10-01T11:00:44.937Z,70.11
2022-10-01T11:03:55.514Z,69.79
2022-10-01T11:07:02.826Z,69.96
2022-10-01T11:10:35.494Z,69.60
2022-10-01T11:13:58.508Z,70.05
2022-10-01T11:17:28.397Z,70.05
2022-10-01T11:20:47.563Z,69.97
2022-10-01T11:24:11.630Z,69.91
2022-10-01T11:27:26.563Z,69.71
2022-10-01T11:30:41.032Z,69.63
2022-10-01T11:33:59.530Z,69.76
2022-10-01T11:37:18.873Z,69.39
2022-10-01T11:40:30.144Z,69.73
2022-10-01T11:43:41.448Z,69.95
2022-10-01T11:46:54.866Z,70.33
2022-10-01T11:50:04.316Z,70.85
2022-10-01T11:53:17.082Z,70.97
2022-10-01T11:59:50.243Z,70.72
2022-10-01T12:03:00.930Z,70.98
2022-10-01T12:06:14.988Z,70.87
2022-10-01T12:09:26.311Z,70.62
2022-10-01T12:12:37.160Z,70.04
2022-10-01T12:15:51.307Z,69.60
2022-10-01T12:19:03.918Z,70.05
2022-10-01T12:22:16.243Z,70.13
2022-10-01T12:25:29.097Z,70.42
2022-10-01T12:28:55.562Z,70.68
2022-10-01T12:32:11.746Z,71.17
2022-10-01T12:35:36.090Z,71.50
2022-10-01T12:38:55.609Z,71.19
2022-10-01T12:42:13.051Z,71.31
2022-10-01T12:45:31.615Z,71.23
2022-10-01T12:48:47.695Z,71.04
2022-10-01T12:52:02.116Z,70.83
2022-10-01T12:55:29.499Z,70.63
2022-10-01T12:59:08.846Z,70.88
2022-10-01T13:02:30.556Z,70.90
2022-10-01T13:05:44.737Z,70.70
2022-10-01T13:09:02.116Z,70.65
2022-10-01T13:12:23.348Z,70.30
2022-10-01T13:15:35.356Z,70.08
2022-10-01T13:18:54.574Z,70.25
2022-10-01T13:22:14.625Z,70.65
2022-10-01T13:25:32.276Z,70.56
2022-10-01T13:28:53.826Z,70.72
2022-10-01T13:32:01.338Z,70.72
2022-10-01T13:35:25.911Z,70.78
2022-10-01T13:38:41.053Z,70.93
2022-10-01T13:41:48.156Z,71.04
2022-10-01T13:44:59.852Z,70.73
2022-10-01T13:48:14.844Z,70.25
2022-10-01T13:51:21.685Z,70.14
2022-10-01T13:54:31.228Z,70.13
2022-10-01T13:57:39.447Z,70.55
2022-10-01T14:00:53.720Z,70.56
2022-10-01T14:04:08.500Z,70.21
2022-10-01T14:07:22.301Z,70.00
2022-10-01T14:10:57.956Z,69.90
2022-10-01T14:14:31.875Z,69.77
2022-10-01T14:17:39.169Z,70.11
2022-10-01T14:21:00.276Z,70.08
2022-10-01T14:24:17.103Z,70.07
2022-10-01T14:27:30.252Z,69.83
2022-10-01T14:30:44.258Z,69.65
2022-10-01T14:34:36.920Z,69.57
2022-10-01T14:37:43.535Z,69.86
2022-10-01T14:40:51.403Z,69.94
2022-10-01T14:43:57.649Z,70.03
2022-10-01T14:47:13.396Z,70.20
2022-10-01T14:50:20.367Z,70.47
2022-10-01T14:53:28.511Z,70.63
2022-10-01T14:56:35.779Z,70.63
2022-10-01T14:59:43.584Z,70.76
2022-10-01T15:02:52.000Z,71.05
2022-10-01T15:06:12.863Z,71.13
2022-10-01T15:09:20.873Z,71.23
2022-10-01T15:12:28.360Z,71.42
2022-10-01T15:15:41.207Z,71.57
2022-10-01T15:18:53.546Z,71.50
2022-10-01T15:22:02.042Z,71.54
2022-10-01T15:25:17.220Z,71.67
2022-10-01T15:28:32.098Z,71.89
2022-10-01T15:31:39.712Z,71.81
2022-10-01T15:34:49.914Z,71.72
2022-10-01T15:38:00.792Z,71.61
2022-10-01T15:41:30.583Z,71.50
2022-10-01T15:44:51.427Z,71.37
2022-10-01T15:47:58.231Z,71.32
2022-10-01T15:51:07.420Z,71.21
2022-10-01T15:54:17.503Z,71.15
2022-10-01T15:57:25.897Z,71.16
2022-10-01T16:00:35.277Z,71.10
2022-10-01T16:03:49.526Z,71.02
2022-10-01T16:06:56.070Z,70.87
2022-10-01T16:10:15.338Z,70.82
2022-10-01T16:13:42.104Z,70.68
2022-10-01T16:16:48.536Z,70.48
2022-10-01T16:19:56.842Z,70.48
2022-10-01T16:23:37.003Z,70.49
2022-10-01T16:26:44.436Z,70.39
2022-10-01T16:30:05.607Z,70.33
2022-10-01T16:33:13.336Z,70.22
2022-10-01T16:36:24.195Z,70.14
2022-10-01T16:39:30.391Z,70.06
2022-10-01T16:42:37.413Z,70.43
2022-10-01T16:45:44.065Z,70.49
2022-10-01T16:48:52.597Z,70.47
2022-10-01T16:51:59.099Z,70.28
2022-10-01T16:55:05.415Z,70.34
2022-10-01T16:58:11.808Z,70.35
2022-10-01T17:01:17.979Z,70.44
2022-10-01T17:04:29.225Z,70.48
2022-10-01T17:07:38.036Z,70.50
2022-10-01T17:10:47.863Z,70.41
2022-10-01T17:13:54.361Z,70.40
2022-10-01T17:17:00.491Z,70.47
2022-10-01T17:20:05.726Z,70.34
2022-10-01T17:23:13.948Z,70.43
2022-10-01T17:26:20.242Z,70.15
2022-10-01T17:29:26.831Z,70.10
2022-10-01T17:32:34.107Z,70.11
2022-10-01T17:35:44.784Z,70.05
2022-10-01T17:38:50.975Z,70.05
2022-10-01T17:41:57.819Z,70.01
2022-10-01T17:45:05.544Z,69.70
2022-10-01T17:48:12.089Z,69.77
2022-10-01T17:51:18.515Z,69.80
2022-10-01T17:54:25.401Z,69.80
2022-10-01T17:57:31.455Z,69.74
2022-10-01T18:00:36.034Z,69.71
2022-10-01T18:03:42.621Z,70.05
2022-10-01T18:06:49.799Z,70.06
2022-10-01T18:09:56.202Z,70.04
2022-10-01T18:13:02.383Z,70.12
2022-10-01T18:16:14.123Z,70.12
2022-10-01T18:22:48.796Z,70.23
2022-10-01T18:25:55.079Z,70.13
2022-10-01T18:29:01.293Z,69.84
2022-10-01T18:32:15.398Z,70.16
2022-10-01T18:35:29.213Z,69.99
2022-10-01T18:38:38.788Z,70.19
2022-10-01T18:41:45.503Z,70.10
2022-10-01T18:44:56.868Z,69.88
2022-10-01T18:48:16.814Z,69.93
2022-10-01T18:51:33.412Z,70.13
2022-10-01T18:55:03.773Z,70.12
2022-10-01T18:58:33.501Z,70.02
2022-10-01T19:01:48.671Z,69.89
2022-10-01T19:05:25.087Z,69.50
2022-10-01T19:08:52.985Z,69.31
2022-10-01T19:12:17.174Z,69.30
2022-10-01T19:15:38.711Z,69.11
2022-10-01T19:18:58.486Z,69.12
2022-10-01T19:22:14.965Z,68.82
2022-10-01T19:25:27.225Z,68.66
2022-10-01T19:28:49.847Z,68.78
2022-10-01T19:32:00.154Z,68.92
2022-10-01T19:35:17.102Z,69.02
2022-10-01T19:38:29.593Z,68.94
2022-10-01T19:41:43.344Z,69.08
2022-10-01T19:45:00.853Z,68.99
2022-10-01T19:48:15.274Z,67.57
2022-10-01T19:51:26.147Z,65.91
2022-10-01T19:54:35.186Z,66.11
2022-10-01T19:57:44.861Z,66.08
2022-10-01T20:00:57.122Z,65.79
2022-10-01T20:04:06.588Z,65.81
2022-10-01T20:07:18.593Z,65.71
2022-10-01T20:10:31.596Z,65.89
2022-10-01T20:13:55.474Z,65.94
2022-10-01T20:17:04.991Z,65.84
2022-10-01T20:20:19.039Z,66.09
2022-10-01T20:23:40.324Z,66.28
2022-10-01T20:26:53.610Z,66.34
2022-10-01T20:30:07.034Z,66.63
2022-10-01T20:33:24.251Z,66.39
2022-10-01T20:36:38.417Z,66.56
2022-10-01T20:39:49.589Z,66.76
2022-10-01T20:43:01.536Z,67.11
2022-10-01T20:46:11.986Z,67.23
2022-10-01T20:49:32.543Z,67.23
2022-10-01T20:52:47.339Z,67.75
2022-10-01T20:55:57.286Z,67.81
2022-10-01T20:59:09.569Z,67.90
2022-10-01T21:02:30.195Z,67.91
2022-10-01T21:05:42.790Z,67.90
2022-10-01T21:08:53.712Z,67.89
2022-10-01T21:12:04.646Z,67.97
2022-10-01T21:15:14.946Z,68.02
2022-10-01T21:18:29.471Z,68.05
2022-10-01T21:21:46.460Z,68.04
2022-10-01T21:25:02.984Z,67.87
2022-10-01T21:28:31.740Z,67.91
2022-10-01T21:31:49.789Z,67.96
2022-10-01T21:35:07.572Z,67.86
2022-10-01T21:38:28.630Z,67.75
2022-10-01T21:41:55.583Z,67.73
2022-10-01T21:45:14.687Z,67.63
2022-10-01T21:48:37.905Z,67.54
2022-10-01T21:51:58.719Z,67.58
2022-10-01T21:55:17.457Z,67.96
2022-10-01T21:58:37.216Z,67.70
2022-10-01T22:02:01.843Z,67.90
2022-10-01T22:05:23.527Z,67.83
2022-10-01T22:08:48.455Z,67.75
2022-10-01T22:11:59.637Z,67.62
2022-10-01T22:15:14.189Z,67.93
2022-10-01T22:18:26.201Z,67.96
2022-10-01T22:21:38.467Z,67.99
2022-10-01T22:24:50.581Z,67.83
2022-10-01T22:28:01.601Z,68.06
2022-10-01T22:31:12.303Z,68.14
2022-10-01T22:34:23.926Z,68.06
2022-10-01T22:37:34.502Z,67.99
2022-10-01T22:40:46.419Z,67.91
2022-10-01T22:43:52.658Z,67.93
2022-10-01T22:47:21.957Z,67.98
2022-10-01T22:50:39.709Z,67.89
2022-10-01T22:54:03.237Z,67.96
2022-10-01T22:57:29.754Z,67.95
2022-10-01T23:00:44.105Z,67.91
2022-10-01T23:04:09.552Z,67.93
2022-10-01T23:07:22.208Z,67.85
2022-10-01T23:10:39.556Z,67.71
2022-10-01T23:13:53.441Z,67.48
2022-10-01T23:17:05.615Z,67.41
2022-10-01T23:20:25.175Z,67.38
2022-10-01T23:23:34.009Z,67.33
2022-10-01T23:26:51.402Z,67.58
2022-10-01T23:30:11.857Z,67.85
2022-10-01T23:33:32.299Z,67.83
2022-10-01T23:36:46.347Z,67.63
2022-10-01T23:39:56.651Z,67.55
2022-10-01T23:43:10.771Z,67.36
2022-10-01T23:46:23.399Z,67.50
2022-10-01T23:49:33.839Z,67.50
2022-10-01T23:52:46.791Z,67.38
2022-10-01T23:56:18.115Z,67.84
2022-10-01T23:59:30.168Z,67.66
